sensor_id;sensor_type;location;lat;lon;timestamp;P1;durP1;ratioP1;P2;durP2;ratioP2
71773;SDS011;59607;52.130;5.430;2023-09-08T00:00:27;7.18;;;6.57;;
71773;SDS011;59607;52.130;5.430;2023-09-08T00:02:53;7.40;;;6.80;;
71773;SDS011;59607;52.130;5.430;2023-09-08T00:05:28;7.23;;;6.63;;
71773;SDS011;59607;52.130;5.430;2023-09-08T00:07:54;7.72;;;7.13;;
71773;SDS011;59607;52.130;5.430;2023-09-08T00:10:24;8.45;;;7.50;;
71773;SDS011;59607;52.130;5.430;2023-09-08T00:12:54;7.78;;;6.85;;
71773;SDS011;59607;52.130;5.430;2023-09-08T00:15:20;7.78;;;7.05;;
71773;SDS011;59607;52.130;5.430;2023-09-08T00:18:02;8.57;;;6.87;;
71773;SDS011;59607;52.130;5.430;2023-09-08T00:20:32;7.82;;;6.88;;
71773;SDS011;59607;52.130;5.430;2023-09-08T00:23:06;7.30;;;6.70;;
71773;SDS011;59607;52.130;5.430;2023-09-08T00:25:35;8.02;;;7.28;;
71773;SDS011;59607;52.130;5.430;2023-09-08T00:28:05;7.82;;;7.07;;
71773;SDS011;59607;52.130;5.430;2023-09-08T00:30:35;8.23;;;7.47;;
71773;SDS011;59607;52.130;5.430;2023-09-08T00:33:04;7.20;;;6.55;;
71773;SDS011;59607;52.130;5.430;2023-09-08T00:35:35;7.22;;;6.57;;
71773;SDS011;59607;52.130;5.430;2023-09-08T00:38:05;8.00;;;7.20;;
71773;SDS011;59607;52.130;5.430;2023-09-08T00:40:31;8.35;;;6.60;;
71773;SDS011;59607;52.130;5.430;2023-09-08T00:42:58;9.10;;;8.27;;
71773;SDS011;59607;52.130;5.430;2023-09-08T00:45:40;8.20;;;7.55;;
71773;SDS011;59607;52.130;5.430;2023-09-08T00:48:11;8.60;;;7.68;;
71773;SDS011;59607;52.130;5.430;2023-09-08T00:50:39;8.95;;;8.13;;
71773;SDS011;59607;52.130;5.430;2023-09-08T00:53:13;8.02;;;7.43;;
71773;SDS011;59607;52.130;5.430;2023-09-08T00:55:40;7.97;;;7.27;;
71773;SDS011;59607;52.130;5.430;2023-09-08T00:58:10;7.70;;;7.10;;
71773;SDS011;59607;52.130;5.430;2023-09-08T01:00:37;9.00;;;8.20;;
71773;SDS011;59607;52.130;5.430;2023-09-08T01:03:04;8.15;;;7.30;;
71773;SDS011;59607;52.130;5.430;2023-09-08T01:05:34;8.15;;;7.13;;
71773;SDS011;59607;52.130;5.430;2023-09-08T01:08:05;7.43;;;6.83;;
71773;SDS011;59607;52.130;5.430;2023-09-08T01:10:33;8.27;;;7.57;;
71773;SDS011;59607;52.130;5.430;2023-09-08T01:13:03;7.97;;;7.28;;
71773;SDS011;59607;52.130;5.430;2023-09-08T01:15:30;7.50;;;6.97;;
71773;SDS011;59607;52.130;5.430;2023-09-08T01:17:57;8.25;;;7.45;;
71773;SDS011;59607;52.130;5.430;2023-09-08T01:24:20;9.15;;;8.27;;
71773;SDS011;59607;52.130;5.430;2023-09-08T01:26:40;7.85;;;7.03;;
71773;SDS011;59607;52.130;5.430;2023-09-08T01:29:14;9.75;;;8.07;;
71773;SDS011;59607;52.130;5.430;2023-09-08T01:31:42;8.80;;;8.00;;
71773;SDS011;59607;52.130;5.430;2023-09-08T01:34:19;8.00;;;7.20;;
71773;SDS011;59607;52.130;5.430;2023-09-08T01:36:46;8.43;;;7.72;;
71773;SDS011;59607;52.130;5.430;2023-09-08T01:39:19;9.30;;;8.18;;
71773;SDS011;59607;52.130;5.430;2023-09-08T01:41:46;11.45;;;8.43;;
71773;SDS011;59607;52.130;5.430;2023-09-08T01:44:16;9.25;;;8.55;;
71773;SDS011;59607;52.130;5.430;2023-09-08T01:46:44;8.37;;;7.67;;
71773;SDS011;59607;52.130;5.430;2023-09-08T01:49:17;9.52;;;8.23;;
71773;SDS011;59607;52.130;5.430;2023-09-08T01:51:44;8.40;;;7.72;;
71773;SDS011;59607;52.130;5.430;2023-09-08T01:54:10;9.15;;;8.45;;
71773;SDS011;59607;52.130;5.430;2023-09-08T01:56:40;8.82;;;8.23;;
71773;SDS011;59607;52.130;5.430;2023-09-08T01:59:10;9.17;;;8.37;;
71773;SDS011;59607;52.130;5.430;2023-09-08T02:01:36;10.20;;;9.18;;
71773;SDS011;59607;52.130;5.430;2023-09-08T02:04:21;9.27;;;8.48;;
71773;SDS011;59607;52.130;5.430;2023-09-08T02:06:48;11.65;;;9.70;;
71773;SDS011;59607;52.130;5.430;2023-09-08T02:09:17;11.00;;;9.23;;
71773;SDS011;59607;52.130;5.430;2023-09-08T02:11:49;10.10;;;9.07;;
71773;SDS011;59607;52.130;5.430;2023-09-08T02:14:20;9.68;;;8.77;;
71773;SDS011;59607;52.130;5.430;2023-09-08T02:16:49;12.43;;;9.13;;
71773;SDS011;59607;52.130;5.430;2023-09-08T02:19:40;9.50;;;8.70;;
71773;SDS011;59607;52.130;5.430;2023-09-08T02:22:06;9.55;;;8.65;;
71773;SDS011;59607;52.130;5.430;2023-09-08T02:24:41;9.07;;;8.27;;
71773;SDS011;59607;52.130;5.430;2023-09-08T02:27:07;13.00;;;9.02;;
71773;SDS011;59607;52.130;5.430;2023-09-08T02:29:34;9.50;;;7.68;;
71773;SDS011;59607;52.130;5.430;2023-09-08T02:32:06;9.60;;;8.68;;
71773;SDS011;59607;52.130;5.430;2023-09-08T02:34:36;9.55;;;8.50;;
71773;SDS011;59607;52.130;5.430;2023-09-08T02:37:08;8.53;;;7.73;;
71773;SDS011;59607;52.130;5.430;2023-09-08T02:39:35;9.40;;;8.50;;
71773;SDS011;59607;52.130;5.430;2023-09-08T02:42:12;9.52;;;8.82;;
71773;SDS011;59607;52.130;5.430;2023-09-08T02:44:38;9.93;;;8.85;;
71773;SDS011;59607;52.130;5.430;2023-09-08T02:47:12;9.70;;;8.70;;
71773;SDS011;59607;52.130;5.430;2023-09-08T02:49:38;9.67;;;8.67;;
71773;SDS011;59607;52.130;5.430;2023-09-08T02:52:05;10.60;;;9.60;;
71773;SDS011;59607;52.130;5.430;2023-09-08T02:54:37;9.57;;;8.38;;
71773;SDS011;59607;52.130;5.430;2023-09-08T02:57:04;12.02;;;9.00;;
71773;SDS011;59607;52.130;5.430;2023-09-08T02:59:33;9.25;;;8.45;;
71773;SDS011;59607;52.130;5.430;2023-09-08T03:02:00;9.70;;;8.90;;
71773;SDS011;59607;52.130;5.430;2023-09-08T03:04:26;9.27;;;8.48;;
71773;SDS011;59607;52.130;5.430;2023-09-08T03:07:02;10.32;;;9.30;;
71773;SDS011;59607;52.130;5.430;2023-09-08T03:09:29;10.30;;;9.27;;
71773;SDS011;59607;52.130;5.430;2023-09-08T03:11:55;11.77;;;8.85;;
71773;SDS011;59607;52.130;5.430;2023-09-08T03:14:32;10.73;;;9.00;;
71773;SDS011;59607;52.130;5.430;2023-09-08T03:16:58;9.90;;;8.90;;
71773;SDS011;59607;52.130;5.430;2023-09-08T03:19:31;10.55;;;9.55;;
71773;SDS011;59607;52.130;5.430;2023-09-08T03:21:58;10.10;;;9.07;;
71773;SDS011;59607;52.130;5.430;2023-09-08T03:24:31;10.80;;;9.75;;
71773;SDS011;59607;52.130;5.430;2023-09-08T03:26:58;11.67;;;10.57;;
71773;SDS011;59607;52.130;5.430;2023-09-08T03:29:24;13.55;;;10.82;;
71773;SDS011;59607;52.130;5.430;2023-09-08T03:32:11;12.02;;;9.57;;
71773;SDS011;59607;52.130;5.430;2023-09-08T03:34:42;11.18;;;10.20;;
71773;SDS011;59607;52.130;5.430;2023-09-08T03:37:08;11.60;;;10.50;;
71773;SDS011;59607;52.130;5.430;2023-09-08T03:39:35;11.73;;;9.73;;
71773;SDS011;59607;52.130;5.430;2023-09-08T03:42:05;10.98;;;9.98;;
71773;SDS011;59607;52.130;5.430;2023-09-08T03:44:32;11.82;;;10.50;;
71773;SDS011;59607;52.130;5.430;2023-09-08T03:47:04;11.70;;;10.60;;
71773;SDS011;59607;52.130;5.430;2023-09-08T03:49:31;14.70;;;11.75;;
71773;SDS011;59607;52.130;5.430;2023-09-08T03:52:01;11.73;;;10.70;;
71773;SDS011;59607;52.130;5.430;2023-09-08T03:54:32;13.40;;;11.27;;
71773;SDS011;59607;52.130;5.430;2023-09-08T03:57:02;14.05;;;11.77;;
71773;SDS011;59607;52.130;5.430;2023-09-08T03:59:30;12.45;;;11.20;;
71773;SDS011;59607;52.130;5.430;2023-09-08T04:01:56;12.20;;;10.90;;
71773;SDS011;59607;52.130;5.430;2023-09-08T04:04:23;11.73;;;10.63;;
71773;SDS011;59607;52.130;5.430;2023-09-08T04:06:57;16.55;;;11.13;;
71773;SDS011;59607;52.130;5.430;2023-09-08T04:09:24;13.25;;;11.95;;
71773;SDS011;59607;52.130;5.430;2023-09-08T04:11:58;13.05;;;10.73;;
71773;SDS011;59607;52.130;5.430;2023-09-08T04:14:25;12.98;;;11.57;;
71773;SDS011;59607;52.130;5.430;2023-09-08T04:16:59;13.53;;;11.47;;
71773;SDS011;59607;52.130;5.430;2023-09-08T04:19:26;14.55;;;11.15;;
71773;SDS011;59607;52.130;5.430;2023-09-08T04:21:52;11.48;;;10.32;;
71773;SDS011;59607;52.130;5.430;2023-09-08T04:24:24;16.95;;;11.93;;
71773;SDS011;59607;52.130;5.430;2023-09-08T04:26:51;14.23;;;11.98;;
71773;SDS011;59607;52.130;5.430;2023-09-08T04:29:26;14.33;;;11.37;;
71773;SDS011;59607;52.130;5.430;2023-09-08T04:31:52;12.73;;;11.10;;
71773;SDS011;59607;52.130;5.430;2023-09-08T04:34:19;15.50;;;11.05;;
71773;SDS011;59607;52.130;5.430;2023-09-08T04:36:49;11.95;;;10.75;;
71773;SDS011;59607;52.130;5.430;2023-09-08T04:39:17;13.52;;;11.10;;
71773;SDS011;59607;52.130;5.430;2023-09-08T04:41:49;11.90;;;10.70;;
71773;SDS011;59607;52.130;5.430;2023-09-08T04:44:18;16.98;;;11.43;;
71773;SDS011;59607;52.130;5.430;2023-09-08T04:46:48;12.07;;;10.88;;
71773;SDS011;59607;52.130;5.430;2023-09-08T04:49:18;13.65;;;11.90;;
71773;SDS011;59607;52.130;5.430;2023-09-08T04:51:48;13.52;;;12.13;;
71773;SDS011;59607;52.130;5.430;2023-09-08T04:54:18;13.43;;;11.53;;
71773;SDS011;59607;52.130;5.430;2023-09-08T04:56:46;14.35;;;11.60;;
71773;SDS011;59607;52.130;5.430;2023-09-08T04:59:29;13.30;;;12.00;;
71773;SDS011;59607;52.130;5.430;2023-09-08T05:01:56;13.55;;;12.18;;
71773;SDS011;59607;52.130;5.430;2023-09-08T05:04:28;13.65;;;11.45;;
71773;SDS011;59607;52.130;5.430;2023-09-08T05:06:54;12.43;;;11.17;;
71773;SDS011;59607;52.130;5.430;2023-09-08T05:09:27;13.57;;;12.23;;
71773;SDS011;59607;52.130;5.430;2023-09-08T05:11:54;13.73;;;12.35;;
71773;SDS011;59607;52.130;5.430;2023-09-08T05:14:30;12.00;;;10.93;;
71773;SDS011;59607;52.130;5.430;2023-09-08T05:16:56;14.27;;;11.93;;
71773;SDS011;59607;52.130;5.430;2023-09-08T05:19:32;13.80;;;11.50;;
71773;SDS011;59607;52.130;5.430;2023-09-08T05:21:59;12.15;;;11.15;;
71773;SDS011;59607;52.130;5.430;2023-09-08T05:24:25;14.00;;;11.55;;
71773;SDS011;59607;52.130;5.430;2023-09-08T05:26:58;13.18;;;11.15;;
71773;SDS011;59607;52.130;5.430;2023-09-08T05:29:24;11.45;;;10.40;;
71773;SDS011;59607;52.130;5.430;2023-09-08T05:32:03;11.37;;;10.20;;
71773;SDS011;59607;52.130;5.430;2023-09-08T05:34:33;11.25;;;10.23;;
71773;SDS011;59607;52.130;5.430;2023-09-08T05:37:06;11.73;;;9.90;;
71773;SDS011;59607;52.130;5.430;2023-09-08T05:39:36;14.25;;;10.27;;
71773;SDS011;59607;52.130;5.430;2023-09-08T05:42:09;13.57;;;9.40;;
71773;SDS011;59607;52.130;5.430;2023-09-08T05:44:35;12.70;;;10.27;;
71773;SDS011;59607;52.130;5.430;2023-09-08T05:47:08;15.52;;;10.77;;
71773;SDS011;59607;52.130;5.430;2023-09-08T05:49:38;11.50;;;10.38;;
71773;SDS011;59607;52.130;5.430;2023-09-08T05:52:04;10.70;;;9.75;;
71773;SDS011;59607;52.130;5.430;2023-09-08T05:54:38;11.10;;;9.52;;
71773;SDS011;59607;52.130;5.430;2023-09-08T05:57:11;10.27;;;9.27;;
71773;SDS011;59607;52.130;5.430;2023-09-08T05:59:38;10.25;;;9.25;;
71773;SDS011;59607;52.130;5.430;2023-09-08T06:02:08;12.63;;;9.57;;
71773;SDS011;59607;52.130;5.430;2023-09-08T06:04:35;12.27;;;10.02;;
71773;SDS011;59607;52.130;5.430;2023-09-08T06:07:02;10.52;;;9.63;;
71773;SDS011;59607;52.130;5.430;2023-09-08T06:09:29;11.07;;;9.90;;
71773;SDS011;59607;52.130;5.430;2023-09-08T06:12:07;9.93;;;9.02;;
71773;SDS011;59607;52.130;5.430;2023-09-08T06:14:41;11.27;;;10.15;;
71773;SDS011;59607;52.130;5.430;2023-09-08T06:17:09;10.48;;;9.45;;
71773;SDS011;59607;52.130;5.430;2023-09-08T06:19:43;11.93;;;10.73;;
71773;SDS011;59607;52.130;5.430;2023-09-08T06:22:09;10.47;;;9.40;;
71773;SDS011;59607;52.130;5.430;2023-09-08T06:24:42;11.80;;;10.32;;
71773;SDS011;59607;52.130;5.430;2023-09-08T06:27:10;16.05;;;10.60;;
71773;SDS011;59607;52.130;5.430;2023-09-08T06:29:37;12.55;;;9.70;;
71773;SDS011;59607;52.130;5.430;2023-09-08T06:32:06;12.10;;;9.52;;
71773;SDS011;59607;52.130;5.430;2023-09-08T06:34:37;10.67;;;9.67;;
71773;SDS011;59607;52.130;5.430;2023-09-08T06:37:04;12.00;;;9.38;;
71773;SDS011;59607;52.130;5.430;2023-09-08T06:39:33;12.60;;;9.95;;
71773;SDS011;59607;52.130;5.430;2023-09-08T06:41:59;10.50;;;9.45;;
71773;SDS011;59607;52.130;5.430;2023-09-08T06:44:29;12.35;;;9.70;;
71773;SDS011;59607;52.130;5.430;2023-09-08T06:46:59;11.33;;;10.07;;
71773;SDS011;59607;52.130;5.430;2023-09-08T06:49:27;11.57;;;10.23;;
71773;SDS011;59607;52.130;5.430;2023-09-08T06:52:00;11.85;;;10.55;;
71773;SDS011;59607;52.130;5.430;2023-09-08T06:54:26;12.13;;;10.48;;
71773;SDS011;59607;52.130;5.430;2023-09-08T06:56:53;14.13;;;9.88;;
71773;SDS011;59607;52.130;5.430;2023-09-08T06:59:25;13.73;;;10.23;;
71773;SDS011;59607;52.130;5.430;2023-09-08T07:01:51;12.75;;;11.02;;
71773;SDS011;59607;52.130;5.430;2023-09-08T07:04:28;11.15;;;9.95;;
71773;SDS011;59607;52.130;5.430;2023-09-08T07:06:57;11.23;;;10.13;;
71773;SDS011;59607;52.130;5.430;2023-09-08T07:09:29;11.25;;;10.02;;
71773;SDS011;59607;52.130;5.430;2023-09-08T07:11:55;11.90;;;9.70;;
71773;SDS011;59607;52.130;5.430;2023-09-08T07:14:22;13.52;;;10.13;;
71773;SDS011;59607;52.130;5.430;2023-09-08T07:16:54;11.93;;;9.57;;
71773;SDS011;59607;52.130;5.430;2023-09-08T07:19:21;9.43;;;8.63;;
71773;SDS011;59607;52.130;5.430;2023-09-08T07:21:49;10.38;;;9.35;;
71773;SDS011;59607;52.130;5.430;2023-09-08T07:24:18;10.70;;;9.60;;
71773;SDS011;59607;52.130;5.430;2023-09-08T07:26:45;10.82;;;9.73;;
71773;SDS011;59607;52.130;5.430;2023-09-08T07:29:15;9.50;;;8.63;;
71773;SDS011;59607;52.130;5.430;2023-09-08T07:31:44;10.60;;;9.50;;
71773;SDS011;59607;52.130;5.430;2023-09-08T07:34:11;9.75;;;8.70;;
71773;SDS011;59607;52.130;5.430;2023-09-08T07:36:39;9.20;;;8.50;;
71773;SDS011;59607;52.130;5.430;2023-09-08T07:39:08;9.68;;;8.88;;
71773;SDS011;59607;52.130;5.430;2023-09-08T07:41:35;14.60;;;9.13;;
71773;SDS011;59607;52.130;5.430;2023-09-08T07:44:16;13.75;;;9.68;;
71773;SDS011;59607;52.130;5.430;2023-09-08T07:46:50;9.73;;;8.80;;
71773;SDS011;59607;52.130;5.430;2023-09-08T07:49:18;9.87;;;8.97;;
71773;SDS011;59607;52.130;5.430;2023-09-08T07:51:51;12.85;;;8.85;;
71773;SDS011;59607;52.130;5.430;2023-09-08T07:54:17;9.98;;;9.07;;
71773;SDS011;59607;52.130;5.430;2023-09-08T07:56:49;9.68;;;8.02;;
71773;SDS011;59607;52.130;5.430;2023-09-08T07:59:20;9.32;;;8.43;;
71773;SDS011;59607;52.130;5.430;2023-09-08T08:01:46;9.90;;;8.60;;
71773;SDS011;59607;52.130;5.430;2023-09-08T08:04:17;9.75;;;8.75;;
71773;SDS011;59607;52.130;5.430;2023-09-08T08:06:44;11.05;;;9.88;;
71773;SDS011;59607;52.130;5.430;2023-09-08T08:09:20;9.10;;;8.15;;
71773;SDS011;59607;52.130;5.430;2023-09-08T08:11:46;9.20;;;8.18;;
71773;SDS011;59607;52.130;5.430;2023-09-08T08:14:13;9.97;;;8.17;;
71773;SDS011;59607;52.130;5.430;2023-09-08T08:16:44;14.70;;;8.85;;
71773;SDS011;59607;52.130;5.430;2023-09-08T08:19:10;9.30;;;8.27;;
71773;SDS011;59607;52.130;5.430;2023-09-08T08:21:43;11.15;;;9.15;;
71773;SDS011;59607;52.130;5.430;2023-09-08T08:24:12;10.07;;;9.18;;
71773;SDS011;59607;52.130;5.430;2023-09-08T08:26:42;9.90;;;9.00;;
71773;SDS011;59607;52.130;5.430;2023-09-08T08:29:13;10.27;;;8.40;;
71773;SDS011;59607;52.130;5.430;2023-09-08T08:31:39;12.25;;;9.00;;
71773;SDS011;59607;52.130;5.430;2023-09-08T08:34:14;9.38;;;8.23;;
71773;SDS011;59607;52.130;5.430;2023-09-08T08:36:41;11.95;;;8.25;;
71773;SDS011;59607;52.130;5.430;2023-09-08T08:39:10;10.00;;;9.00;;
71773;SDS011;59607;52.130;5.430;2023-09-08T08:41:37;10.90;;;9.75;;
71773;SDS011;59607;52.130;5.430;2023-09-08T08:44:06;11.95;;;9.20;;
71773;SDS011;59607;52.130;5.430;2023-09-08T08:46:41;10.30;;;8.00;;
71773;SDS011;59607;52.130;5.430;2023-09-08T08:49:17;9.50;;;8.45;;
71773;SDS011;59607;52.130;5.430;2023-09-08T08:51:48;12.67;;;8.40;;
71773;SDS011;59607;52.130;5.430;2023-09-08T08:54:24;8.25;;;7.50;;
71773;SDS011;59607;52.130;5.430;2023-09-08T08:56:51;8.27;;;7.63;;
71773;SDS011;59607;52.130;5.430;2023-09-08T08:59:22;8.20;;;7.30;;
71773;SDS011;59607;52.130;5.430;2023-09-08T09:01:51;11.18;;;7.72;;
71773;SDS011;59607;52.130;5.430;2023-09-08T09:04:19;8.50;;;7.80;;
71773;SDS011;59607;52.130;5.430;2023-09-08T09:06:49;9.43;;;8.63;;
71773;SDS011;59607;52.130;5.430;2023-09-08T09:09:17;10.15;;;8.02;;
71773;SDS011;59607;52.130;5.430;2023-09-08T09:11:47;9.82;;;7.78;;
71773;SDS011;59607;52.130;5.430;2023-09-08T09:14:22;9.55;;;7.97;;
71773;SDS011;59607;52.130;5.430;2023-09-08T09:16:50;9.93;;;7.80;;
71773;SDS011;59607;52.130;5.430;2023-09-08T09:19:17;7.53;;;6.82;;
71773;SDS011;59607;52.130;5.430;2023-09-08T09:21:54;8.13;;;7.43;;
71773;SDS011;59607;52.130;5.430;2023-09-08T09:24:32;10.85;;;6.35;;
71773;SDS011;59607;52.130;5.430;2023-09-08T09:27:00;7.28;;;6.78;;
71773;SDS011;59607;52.130;5.430;2023-09-08T09:29:28;6.70;;;6.27;;
71773;SDS011;59607;52.130;5.430;2023-09-08T09:32:04;7.20;;;5.97;;
71773;SDS011;59607;52.130;5.430;2023-09-08T09:34:47;7.38;;;6.78;;
71773;SDS011;59607;52.130;5.430;2023-09-08T09:37:19;7.10;;;6.50;;
71773;SDS011;59607;52.130;5.430;2023-09-08T09:39:52;7.85;;;7.25;;
71773;SDS011;59607;52.130;5.430;2023-09-08T09:42:23;7.77;;;7.10;;
71773;SDS011;59607;52.130;5.430;2023-09-08T09:44:53;7.15;;;6.18;;
71773;SDS011;59607;52.130;5.430;2023-09-08T09:47:19;6.65;;;6.13;;
71773;SDS011;59607;52.130;5.430;2023-09-08T09:50:01;6.20;;;5.68;;
71773;SDS011;59607;52.130;5.430;2023-09-08T09:52:33;8.52;;;5.85;;
71773;SDS011;59607;52.130;5.430;2023-09-08T09:55:05;6.50;;;5.57;;
71773;SDS011;59607;52.130;5.430;2023-09-08T09:57:37;6.05;;;5.63;;
71773;SDS011;59607;52.130;5.430;2023-09-08T10:00:04;7.20;;;6.57;;
71773;SDS011;59607;52.130;5.430;2023-09-08T10:02:41;8.02;;;7.45;;
71773;SDS011;59607;52.130;5.430;2023-09-08T10:05:10;8.00;;;7.20;;
71773;SDS011;59607;52.130;5.430;2023-09-08T10:07:42;6.30;;;5.73;;
71773;SDS011;59607;52.130;5.430;2023-09-08T10:10:09;6.70;;;6.10;;
71773;SDS011;59607;52.130;5.430;2023-09-08T10:12:45;7.72;;;6.75;;
71773;SDS011;59607;52.130;5.430;2023-09-08T10:15:19;9.05;;;6.18;;
71773;SDS011;59607;52.130;5.430;2023-09-08T10:17:56;8.38;;;6.65;;
71773;SDS011;59607;52.130;5.430;2023-09-08T10:20:56;8.97;;;8.17;;
71773;SDS011;59607;52.130;5.430;2023-09-08T10:23:41;7.60;;;7.00;;
71773;SDS011;59607;52.130;5.430;2023-09-08T10:26:23;8.20;;;6.40;;
71773;SDS011;59607;52.130;5.430;2023-09-08T10:28:57;8.48;;;6.03;;
71773;SDS011;59607;52.130;5.430;2023-09-08T10:31:27;7.10;;;6.50;;
71773;SDS011;59607;52.130;5.430;2023-09-08T10:33:59;7.30;;;6.47;;
71773;SDS011;59607;52.130;5.430;2023-09-08T10:36:31;8.55;;;6.80;;
71773;SDS011;59607;52.130;5.430;2023-09-08T10:42:20;6.65;;;6.05;;
71773;SDS011;59607;52.130;5.430;2023-09-08T10:47:24;8.97;;;6.23;;
71773;SDS011;59607;52.130;5.430;2023-09-08T10:49:55;8.02;;;5.95;;
71773;SDS011;59607;52.130;5.430;2023-09-08T10:52:29;7.70;;;6.75;;
71773;SDS011;59607;52.130;5.430;2023-09-08T10:55:01;6.53;;;6.13;;
71773;SDS011;59607;52.130;5.430;2023-09-08T10:57:33;6.07;;;5.57;;
71773;SDS011;59607;52.130;5.430;2023-09-08T11:00:10;7.83;;;5.77;;
71773;SDS011;59607;52.130;5.430;2023-09-08T11:02:39;6.65;;;5.93;;
71773;SDS011;59607;52.130;5.430;2023-09-08T11:05:17;6.22;;;5.65;;
71773;SDS011;59607;52.130;5.430;2023-09-08T11:07:48;6.93;;;6.22;;
71773;SDS011;59607;52.130;5.430;2023-09-08T11:10:20;6.03;;;5.50;;
71773;SDS011;59607;52.130;5.430;2023-09-08T11:13:00;6.43;;;5.93;;
71773;SDS011;59607;52.130;5.430;2023-09-08T11:15:29;6.57;;;6.05;;
71773;SDS011;59607;52.130;5.430;2023-09-08T11:18:02;8.98;;;6.30;;
71773;SDS011;59607;52.130;5.430;2023-09-08T11:20:31;7.47;;;5.85;;
71773;SDS011;59607;52.130;5.430;2023-09-08T11:23:00;6.45;;;5.95;;
71773;SDS011;59607;52.130;5.430;2023-09-08T11:25:27;5.67;;;5.27;;
71773;SDS011;59607;52.130;5.430;2023-09-08T11:27:57;6.32;;;5.82;;
71773;SDS011;59607;52.130;5.430;2023-09-08T11:30:24;7.00;;;6.47;;
71773;SDS011;59607;52.130;5.430;2023-09-08T11:32:51;6.45;;;5.70;;
71773;SDS011;59607;52.130;5.430;2023-09-08T11:35:21;6.70;;;6.10;;
71773;SDS011;59607;52.130;5.430;2023-09-08T11:37:58;6.20;;;5.63;;
71773;SDS011;59607;52.130;5.430;2023-09-08T11:40:39;6.35;;;5.78;;
71773;SDS011;59607;52.130;5.430;2023-09-08T11:43:21;6.88;;;6.28;;
71773;SDS011;59607;52.130;5.430;2023-09-08T11:46:01;6.35;;;5.13;;
71773;SDS011;59607;52.130;5.430;2023-09-08T11:48:59;7.13;;;6.20;;
71773;SDS011;59607;52.130;5.430;2023-09-08T11:51:26;6.37;;;5.77;;
71773;SDS011;59607;52.130;5.430;2023-09-08T11:54:00;5.80;;;5.30;;
71773;SDS011;59607;52.130;5.430;2023-09-08T11:56:27;5.97;;;5.25;;
71773;SDS011;59607;52.130;5.430;2023-09-08T11:59:03;5.95;;;5.50;;
71773;SDS011;59607;52.130;5.430;2023-09-08T12:01:30;5.57;;;5.10;;
71773;SDS011;59607;52.130;5.430;2023-09-08T12:04:02;5.70;;;5.20;;
71773;SDS011;59607;52.130;5.430;2023-09-08T12:06:29;5.97;;;5.43;;
71773;SDS011;59607;52.130;5.430;2023-09-08T12:09:05;6.13;;;5.50;;
71773;SDS011;59607;52.130;5.430;2023-09-08T12:11:33;6.50;;;5.07;;
71773;SDS011;59607;52.130;5.430;2023-09-08T12:14:15;6.25;;;5.13;;
71773;SDS011;59607;52.130;5.430;2023-09-08T12:16:45;5.00;;;4.40;;
71773;SDS011;59607;52.130;5.430;2023-09-08T12:19:31;9.02;;;5.60;;
71773;SDS011;59607;52.130;5.430;2023-09-08T12:22:05;5.88;;;5.38;;
71773;SDS011;59607;52.130;5.430;2023-09-08T12:25:01;5.25;;;4.88;;
71773;SDS011;59607;52.130;5.430;2023-09-08T12:27:35;5.97;;;5.57;;
71773;SDS011;59607;52.130;5.430;2023-09-08T12:30:03;4.97;;;4.67;;
71773;SDS011;59607;52.130;5.430;2023-09-08T12:32:32;5.40;;;5.00;;
71773;SDS011;59607;52.130;5.430;2023-09-08T12:35:03;5.45;;;5.05;;
71773;SDS011;59607;52.130;5.430;2023-09-08T12:37:33;7.00;;;4.70;;
71773;SDS011;59607;52.130;5.430;2023-09-08T12:40:06;5.13;;;4.72;;
71773;SDS011;59607;52.130;5.430;2023-09-08T12:42:35;6.40;;;4.73;;
71773;SDS011;59607;52.130;5.430;2023-09-08T12:45:20;5.53;;;4.40;;
71773;SDS011;59607;52.130;5.430;2023-09-08T12:47:52;5.50;;;4.55;;
71773;SDS011;59607;52.130;5.430;2023-09-08T12:50:19;6.07;;;4.88;;
71773;SDS011;59607;52.130;5.430;2023-09-08T12:52:48;5.70;;;5.20;;
71773;SDS011;59607;52.130;5.430;2023-09-08T12:55:14;5.00;;;4.60;;
71773;SDS011;59607;52.130;5.430;2023-09-08T12:57:50;7.75;;;4.75;;
71773;SDS011;59607;52.130;5.430;2023-09-08T13:00:21;7.78;;;5.07;;
71773;SDS011;59607;52.130;5.430;2023-09-08T13:02:55;5.40;;;5.00;;
71773;SDS011;59607;52.130;5.430;2023-09-08T13:05:24;5.05;;;4.72;;
71773;SDS011;59607;52.130;5.430;2023-09-08T13:07:55;5.70;;;5.30;;
71773;SDS011;59607;52.130;5.430;2023-09-08T13:10:21;10.70;;;5.45;;
71773;SDS011;59607;52.130;5.430;2023-09-08T13:12:51;6.20;;;5.60;;
71773;SDS011;59607;52.130;5.430;2023-09-08T13:15:23;6.57;;;5.78;;
71773;SDS011;59607;52.130;5.430;2023-09-08T13:17:56;6.93;;;5.20;;
71773;SDS011;59607;52.130;5.430;2023-09-08T13:20:26;5.83;;;5.10;;
71773;SDS011;59607;52.130;5.430;2023-09-08T13:22:53;6.03;;;5.18;;
71773;SDS011;59607;52.130;5.430;2023-09-08T13:25:25;8.82;;;4.90;;
71773;SDS011;59607;52.130;5.430;2023-09-08T13:27:51;6.55;;;4.90;;
71773;SDS011;59607;52.130;5.430;2023-09-08T13:30:28;7.18;;;4.82;;
71773;SDS011;59607;52.130;5.430;2023-09-08T13:32:55;9.03;;;4.63;;
71773;SDS011;59607;52.130;5.430;2023-09-08T13:35:22;5.90;;;5.28;;
71773;SDS011;59607;52.130;5.430;2023-09-08T13:37:52;5.93;;;5.53;;
71773;SDS011;59607;52.130;5.430;2023-09-08T13:40:18;5.65;;;5.15;;
71773;SDS011;59607;52.130;5.430;2023-09-08T13:42:48;5.40;;;4.88;;
71773;SDS011;59607;52.130;5.430;2023-09-08T13:45:14;6.03;;;5.13;;
71773;SDS011;59607;52.130;5.430;2023-09-08T13:47:41;5.85;;;5.20;;
71773;SDS011;59607;52.130;5.430;2023-09-08T13:50:12;7.72;;;5.78;;
71773;SDS011;59607;52.130;5.430;2023-09-08T13:52:42;5.60;;;5.20;;
71773;SDS011;59607;52.130;5.430;2023-09-08T13:55:15;6.15;;;5.50;;
71773;SDS011;59607;52.130;5.430;2023-09-08T13:57:44;7.07;;;5.63;;
71773;SDS011;59607;52.130;5.430;2023-09-08T14:00:14;5.35;;;4.93;;
71773;SDS011;59607;52.130;5.430;2023-09-08T14:02:50;5.50;;;5.10;;
71773;SDS011;59607;52.130;5.430;2023-09-08T14:05:26;5.00;;;4.60;;
71773;SDS011;59607;52.130;5.430;2023-09-08T14:08:01;5.22;;;4.82;;
71773;SDS011;59607;52.130;5.430;2023-09-08T14:10:40;5.50;;;5.10;;
71773;SDS011;59607;52.130;5.430;2023-09-08T14:13:18;7.78;;;5.60;;
71773;SDS011;59607;52.130;5.430;2023-09-08T14:15:46;5.93;;;5.53;;
71773;SDS011;59607;52.130;5.430;2023-09-08T14:18:13;5.50;;;5.10;;
71773;SDS011;59607;52.130;5.430;2023-09-08T14:20:41;6.50;;;5.40;;
71773;SDS011;59607;52.130;5.430;2023-09-08T14:23:16;7.37;;;5.10;;
71773;SDS011;59607;52.130;5.430;2023-09-08T14:25:42;5.22;;;4.80;;
71773;SDS011;59607;52.130;5.430;2023-09-08T14:28:13;5.68;;;5.28;;
71773;SDS011;59607;52.130;5.430;2023-09-08T14:30:42;5.22;;;4.82;;
71773;SDS011;59607;52.130;5.430;2023-09-08T14:33:16;4.90;;;4.43;;
71773;SDS011;59607;52.130;5.430;2023-09-08T14:35:50;7.60;;;4.20;;
71773;SDS011;59607;52.130;5.430;2023-09-08T14:38:24;4.90;;;4.57;;
71773;SDS011;59607;52.130;5.430;2023-09-08T14:40:56;4.43;;;4.03;;
71773;SDS011;59607;52.130;5.430;2023-09-08T14:43:29;4.68;;;4.38;;
71773;SDS011;59607;52.130;5.430;2023-09-08T14:45:56;5.03;;;4.63;;
71773;SDS011;59607;52.130;5.430;2023-09-08T14:48:28;5.63;;;3.77;;
71773;SDS011;59607;52.130;5.430;2023-09-08T14:50:56;4.65;;;4.18;;
71773;SDS011;59607;52.130;5.430;2023-09-08T14:53:26;6.00;;;4.50;;
71773;SDS011;59607;52.130;5.430;2023-09-08T14:55:58;6.60;;;4.35;;
71773;SDS011;59607;52.130;5.430;2023-09-08T14:58:33;4.45;;;4.05;;
71773;SDS011;59607;52.130;5.430;2023-09-08T15:01:03;5.50;;;4.17;;
71773;SDS011;59607;52.130;5.430;2023-09-08T15:03:38;4.72;;;4.28;;
71773;SDS011;59607;52.130;5.430;2023-09-08T15:06:07;4.93;;;4.53;;
71773;SDS011;59607;52.130;5.430;2023-09-08T15:08:40;5.25;;;4.85;;
71773;SDS011;59607;52.130;5.430;2023-09-08T15:11:12;4.63;;;4.30;;